Time;durP1;ratioP1;P1;durP2;ratioP2;P2;SDS_P1;SDS_P2;PMS_P1;PMS_P2;Temp;Humidity;BMP_temperature;BMP_pressure;BME280_temperature;BME280_humidity;BME280_pressure;Samples;Min_cycle;Max_cycle;Signal;HPM_P1;HPM_P2
2022/03/25 00:00:19;;;;;;;58.78;28.13;;;8.10;98.80;;;;;;4993045;28;20088;-86
2022/03/25 00:02:45;;;;;;;49.70;26.85;;;8.00;98.70;;;;;;4993955;28;20038;-85
2022/03/25 00:05:11;;;;;;;53.90;27.98;;;8.00;98.60;;;;;;4992968;28;20030;-85
2022/03/25 00:07:37;;;;;;;53.15;27.23;;;8.00;98.50;;;;;;4989855;28;20445;-85
2022/03/25 00:10:04;;;;;;;57.17;26.77;;;8.00;98.50;;;;;;4992455;28;20120;-86
2022/03/25 00:12:30;;;;;;;53.63;27.80;;;7.90;98.40;;;;;;4979182;28;20023;-85
2022/03/25 00:14:55;;;;;;;52.85;27.15;;;7.90;98.40;;;;;;4994280;28;20034;-85
2022/03/25 00:17:21;;;;;;;56.35;27.40;;;7.80;98.40;;;;;;4988942;28;20440;-85
2022/03/25 00:19:46;;;;;;;55.15;27.65;;;7.80;98.50;;;;;;4994687;28;20050;-85
2022/03/25 00:22:12;;;;;;;51.58;26.35;;;7.70;98.50;;;;;;4993419;28;20038;-85
2022/03/25 00:24:37;;;;;;;49.90;27.23;;;7.60;98.50;;;;;;4994225;28;20122;-85
2022/03/25 00:27:04;;;;;;;51.53;27.35;;;7.60;98.60;;;;;;4989077;28;20037;-85
2022/03/25 00:29:29;;;;;;;54.03;27.17;;;7.50;98.50;;;;;;4989888;28;20065;-85
2022/03/25 00:31:55;;;;;;;49.75;25.40;;;7.50;98.60;;;;;;4981250;28;20062;-85
2022/03/25 00:34:20;;;;;;;55.00;25.88;;;7.40;98.70;;;;;;4991875;28;20026;-85
2022/03/25 00:36:46;;;;;;;54.35;27.20;;;7.40;98.70;;;;;;4987342;28;20243;-85
2022/03/25 00:39:11;;;;;;;52.65;26.10;;;7.40;98.70;;;;;;4987965;28;20534;-86
2022/03/25 00:41:37;;;;;;;51.88;25.45;;;7.30;98.60;;;;;;4984269;28;20030;-85
2022/03/25 00:44:07;;;;;;;51.17;25.83;;;7.30;98.50;;;;;;5001175;28;20387;-86
2022/03/25 00:46:33;;;;;;;54.20;25.23;;;7.30;98.40;;;;;;4993986;28;20018;-85
2022/03/25 00:48:59;;;;;;;50.72;24.90;;;7.20;98.40;;;;;;4977385;28;20031;-85
2022/03/25 00:51:25;;;;;;;49.58;23.55;;;7.20;98.30;;;;;;4993094;28;20026;-85
2022/03/25 00:53:51;;;;;;;56.10;25.75;;;7.20;98.10;;;;;;4995376;28;20033;-86
2022/03/25 00:56:16;;;;;;;52.42;25.02;;;7.20;98.00;;;;;;4991818;28;20155;-86
2022/03/25 00:58:42;;;;;;;54.58;24.40;;;7.20;97.90;;;;;;4992352;28;20035;-85
2022/03/25 01:01:08;;;;;;;50.25;25.27;;;7.20;97.80;;;;;;4991701;28;20025;-85
2022/03/25 01:03:35;;;;;;;53.58;23.98;;;7.20;97.60;;;;;;4993348;28;20096;-85
2022/03/25 01:06:00;;;;;;;49.60;24.17;;;7.10;97.50;;;;;;4979423;28;20398;-85
2022/03/25 01:08:27;;;;;;;44.97;22.77;;;7.10;97.40;;;;;;4981131;28;20042;-85
2022/03/25 01:10:53;;;;;;;52.38;24.50;;;7.10;97.40;;;;;;4982296;28;20031;-85
2022/03/25 01:13:18;;;;;;;47.88;24.60;;;7.00;97.30;;;;;;4990139;28;20023;-85
2022/03/25 01:15:44;;;;;;;45.95;22.73;;;7.00;97.20;;;;;;4990644;28;20045;-85
2022/03/25 01:18:10;;;;;;;45.30;23.23;;;6.90;97.20;;;;;;4983723;28;20037;-83
2022/03/25 01:20:35;;;;;;;44.72;22.02;;;6.90;97.10;;;;;;4978261;28;20407;-85
2022/03/25 01:23:01;;;;;;;47.65;23.00;;;6.90;97.00;;;;;;4988074;28;20137;-85
2022/03/25 01:25:27;;;;;;;44.40;22.35;;;6.80;96.80;;;;;;4980115;28;20045;-85
2022/03/25 01:27:52;;;;;;;46.30;24.08;;;6.80;96.80;;;;;;4986965;28;20376;-85
2022/03/25 01:30:18;;;;;;;45.85;22.58;;;6.80;96.70;;;;;;4974251;28;20014;-85
2022/03/25 01:32:43;;;;;;;46.92;23.33;;;6.70;96.70;;;;;;4984373;28;20036;-84
2022/03/25 01:35:09;;;;;;;44.97;22.35;;;6.70;96.70;;;;;;4992726;28;20022;-85
2022/03/25 01:37:36;;;;;;;47.05;21.90;;;6.60;96.90;;;;;;4985194;28;20034;-85
2022/03/25 01:40:02;;;;;;;45.70;22.95;;;6.60;96.60;;;;;;4990539;28;20082;-85
2022/03/25 01:42:32;;;;;;;48.50;23.83;;;6.60;96.70;;;;;;4992952;28;20042;-85
2022/03/25 01:44:58;;;;;;;52.08;24.95;;;6.50;96.70;;;;;;4981531;28;20165;-85
2022/03/25 01:47:28;;;;;;;50.60;25.05;;;6.50;96.70;;;;;;4992372;28;20069;-85
2022/03/25 01:49:56;;;;;;;49.00;23.27;;;6.50;96.60;;;;;;4986820;28;20026;-85
2022/03/25 01:52:22;;;;;;;52.22;26.05;;;6.40;96.70;;;;;;4983017;28;20027;-85
2022/03/25 01:54:47;;;;;;;46.40;23.33;;;6.40;96.70;;;;;;4991733;28;20030;-85
2022/03/25 01:57:13;;;;;;;48.72;25.00;;;6.30;96.80;;;;;;4981910;28;20033;-85
2022/03/25 01:59:39;;;;;;;46.65;23.27;;;6.30;96.80;;;;;;4985699;28;20022;-85
2022/03/25 02:02:06;;;;;;;50.50;24.85;;;6.20;96.80;;;;;;4986855;28;20118;-85
2022/03/25 02:04:33;;;;;;;51.65;24.85;;;6.20;96.90;;;;;;4982388;28;20054;-85
2022/03/25 02:06:58;;;;;;;54.03;24.75;;;6.20;96.90;;;;;;4986195;28;20117;-85
2022/03/25 02:09:27;;;;;;;56.85;26.15;;;6.10;96.90;;;;;;4991195;28;20122;-85
2022/03/25 02:11:53;;;;;;;54.15;26.08;;;6.10;97.00;;;;;;4984926;28;20038;-85
2022/03/25 02:14:19;;;;;;;50.45;25.52;;;6.00;97.00;;;;;;4991380;28;20603;-85
2022/03/25 02:16:46;;;;;;;58.55;26.58;;;6.00;97.10;;;;;;4990258;28;20030;-85
2022/03/25 02:19:13;;;;;;;57.33;26.55;;;5.90;97.20;;;;;;4989270;28;20042;-85
2022/03/25 02:21:40;;;;;;;55.58;25.98;;;5.90;97.30;;;;;;4975467;28;20041;-85
2022/03/25 02:24:07;;;;;;;56.60;26.98;;;5.90;97.40;;;;;;4976238;28;20038;-85
2022/03/25 02:26:35;;;;;;;57.17;26.10;;;5.80;97.50;;;;;;4987403;28;20023;-85
2022/03/25 02:29:00;;;;;;;55.97;25.90;;;5.80;97.60;;;;;;4991519;28;20057;-85
2022/03/25 02:31:27;;;;;;;51.20;25.13;;;5.70;97.60;;;;;;4988018;28;20126;-85
2022/03/25 02:33:56;;;;;;;55.90;26.38;;;5.70;97.80;;;;;;4981502;28;20042;-85
2022/03/25 02:36:22;;;;;;;54.50;25.63;;;5.60;97.80;;;;;;4990863;28;20487;-85
2022/03/25 02:38:47;;;;;;;54.63;27.40;;;5.60;98.00;;;;;;4988430;28;20041;-86
2022/03/25 02:41:13;;;;;;;55.63;26.33;;;5.50;98.20;;;;;;4988992;28;20054;-85
2022/03/25 02:43:38;;;;;;;59.17;28.20;;;5.50;98.30;;;;;;4978152;28;20482;-85
2022/03/25 02:46:04;;;;;;;56.10;26.70;;;5.50;98.40;;;;;;4990280;28;20027;-85
2022/03/25 02:48:30;;;;;;;56.47;26.27;;;5.50;98.50;;;;;;4991834;28;20143;-85
2022/03/25 02:50:56;;;;;;;56.92;27.70;;;5.40;98.60;;;;;;4980083;28;20027;-85
2022/03/25 02:53:21;;;;;;;63.20;29.17;;;5.40;98.70;;;;;;4985679;28;20031;-85
2022/03/25 02:55:47;;;;;;;58.80;29.00;;;5.40;98.70;;;;;;4991119;28;20391;-85
2022/03/25 02:58:13;;;;;;;57.90;28.52;;;5.40;98.70;;;;;;4989988;28;20023;-85
2022/03/25 03:00:39;;;;;;;57.65;27.00;;;5.40;98.80;;;;;;4987761;28;20038;-85
2022/03/25 03:03:04;;;;;;;62.00;28.20;;;5.40;98.80;;;;;;4996005;28;20045;-85
2022/03/25 03:05:31;;;;;;;55.70;26.83;;;5.40;99.00;;;;;;4994306;28;20034;-86
2022/03/25 03:07:57;;;;;;;59.65;29.30;;;5.30;99.10;;;;;;4993852;28;20471;-85
2022/03/25 03:10:24;;;;;;;66.80;32.78;;;5.30;99.20;;;;;;4997874;28;20030;-85
2022/03/25 03:12:52;;;;;;;54.97;26.88;;;5.20;99.40;;;;;;4994737;28;20038;-85
2022/03/25 03:15:18;;;;;;;61.08;30.55;;;5.20;99.50;;;;;;4997576;28;20022;-85
2022/03/25 03:17:45;;;;;;;60.17;29.10;;;5.20;99.70;;;;;;4997844;28;20034;-85
2022/03/25 03:20:12;;;;;;;59.20;28.70;;;5.20;99.80;;;;;;4997917;28;20521;-86
2022/03/25 03:22:38;;;;;;;66.28;29.63;;;5.10;99.90;;;;;;4997904;28;20038;-85
2022/03/25 03:25:04;;;;;;;60.10;29.33;;;5.00;99.90;;;;;;4996138;28;20383;-85
2022/03/25 03:27:30;;;;;;;61.97;29.08;;;5.00;99.90;;;;;;4994192;28;20031;-85
2022/03/25 03:29:56;;;;;;;62.05;29.48;;;5.00;99.90;;;;;;4979942;28;20439;-86
2022/03/25 03:32:23;;;;;;;63.50;30.77;;;4.90;99.90;;;;;;4979904;28;20106;-85
2022/03/25 03:34:49;;;;;;;71.35;32.78;;;4.90;99.90;;;;;;4989791;28;20018;-85
2022/03/25 03:37:14;;;;;;;61.17;30.08;;;4.80;99.90;;;;;;4996174;28;20122;-85
2022/03/25 03:39:40;;;;;;;73.43;32.88;;;4.80;99.90;;;;;;4997435;28;20026;-85
2022/03/25 03:42:06;;;;;;;63.38;31.10;;;4.80;99.90;;;;;;4997557;28;20026;-85
2022/03/25 03:44:31;;;;;;;66.60;31.42;;;4.80;99.90;;;;;;4983252;28;20027;-85
2022/03/25 03:46:58;;;;;;;66.78;31.80;;;4.80;99.90;;;;;;4991371;28;20023;-85
2022/03/25 03:49:23;;;;;;;66.38;31.98;;;4.80;99.90;;;;;;4998372;28;20026;-85
2022/03/25 03:51:49;;;;;;;65.63;30.15;;;4.80;99.90;;;;;;4997507;28;20037;-85
2022/03/25 03:54:15;;;;;;;65.47;30.60;;;4.70;99.90;;;;;;4991224;28;20495;-85
2022/03/25 03:56:42;;;;;;;70.03;32.83;;;4.70;99.90;;;;;;4978740;28;20027;-86
2022/03/25 03:59:07;;;;;;;72.32;32.92;;;4.70;99.90;;;;;;4992759;28;20113;-85
2022/03/25 04:01:33;;;;;;;68.10;32.58;;;4.60;99.90;;;;;;4997833;28;20117;-85
2022/03/25 04:03:58;;;;;;;75.38;33.70;;;4.60;99.90;;;;;;4994659;28;20038;-85
2022/03/25 04:06:25;;;;;;;77.85;34.00;;;4.60;99.90;;;;;;4990472;28;20026;-85
2022/03/25 04:08:50;;;;;;;71.63;34.00;;;4.60;99.90;;;;;;4986314;28;20035;-85
2022/03/25 04:11:16;;;;;;;70.95;32.63;;;4.60;99.90;;;;;;4980652;28;20053;-85
2022/03/25 04:13:44;;;;;;;72.57;33.03;;;4.50;99.90;;;;;;4975394;28;20066;-85
2022/03/25 04:16:10;;;;;;;68.97;34.20;;;4.50;99.90;;;;;;4979408;28;20018;-85
2022/03/25 04:18:35;;;;;;;74.18;35.60;;;4.40;99.90;;;;;;4993708;28;20038;-85
2022/03/25 04:21:01;;;;;;;75.20;34.40;;;4.40;99.90;;;;;;4992006;28;20089;-85
2022/03/25 04:23:26;;;;;;;72.38;33.53;;;4.40;99.90;;;;;;4987284;28;20043;-84
2022/03/25 04:25:52;;;;;;;74.00;35.70;;;4.30;99.90;;;;;;4990793;28;20085;-86
2022/03/25 04:28:18;;;;;;;67.53;32.42;;;4.30;99.90;;;;;;4993958;28;20041;-85
2022/03/25 04:30:43;;;;;;;72.90;34.22;;;4.30;99.90;;;;;;4993104;28;20034;-86
2022/03/25 04:33:09;;;;;;;73.20;34.97;;;4.30;99.90;;;;;;4994124;28;20049;-86
2022/03/25 04:35:35;;;;;;;72.40;34.38;;;4.30;99.90;;;;;;4993402;28;20034;-86
2022/03/25 04:38:01;;;;;;;71.93;33.70;;;4.20;99.90;;;;;;4990190;28;20058;-86
2022/03/25 04:40:29;;;;;;;78.43;34.92;;;4.20;99.90;;;;;;4980409;28;20073;-86
2022/03/25 04:42:56;;;;;;;74.05;35.72;;;4.10;99.90;;;;;;4989401;28;20042;-86
2022/03/25 04:45:24;;;;;;;84.80;37.20;;;4.00;99.90;;;;;;4979480;28;20492;-87
2022/03/25 04:47:50;;;;;;;74.60;36.85;;;4.00;99.90;;;;;;4988670;28;20045;-86
2022/03/25 04:50:16;;;;;;;82.32;37.78;;;3.90;99.90;;;;;;4994955;28;20477;-86
2022/03/25 04:52:41;;;;;;;79.78;37.65;;;3.90;99.90;;;;;;4987415;28;20038;-86
2022/03/25 04:55:07;;;;;;;80.88;36.80;;;3.90;99.90;;;;;;4983046;28;20069;-86
2022/03/25 04:57:33;;;;;;;76.72;36.22;;;3.90;99.90;;;;;;4990762;28;20076;-86
2022/03/25 04:59:59;;;;;;;82.38;37.55;;;3.90;99.90;;;;;;4989464;28;20121;-86
2022/03/25 05:02:25;;;;;;;80.88;37.78;;;3.80;99.90;;;;;;4989045;28;20046;-86
2022/03/25 05:04:55;;;;;;;85.25;40.95;;;3.80;99.90;;;;;;4994649;28;20482;-86
2022/03/25 05:07:21;;;;;;;81.10;39.08;;;3.80;99.90;;;;;;4983225;28;20030;-86
2022/03/25 05:09:46;;;;;;;84.32;39.13;;;3.80;99.90;;;;;;4974563;28;20047;-85
2022/03/25 05:12:12;;;;;;;78.18;36.05;;;3.70;99.90;;;;;;4975352;28;20451;-85
2022/03/25 05:14:38;;;;;;;78.60;38.67;;;3.60;99.90;;;;;;4981866;28;20034;-86
2022/03/25 05:17:04;;;;;;;84.45;39.53;;;3.40;99.90;;;;;;4989293;28;20057;-86
2022/03/25 05:19:30;;;;;;;84.47;40.70;;;3.30;99.90;;;;;;4984727;28;20041;-86
2022/03/25 05:21:55;;;;;;;84.57;38.05;;;3.30;99.90;;;;;;4983039;28;20547;-86
2022/03/25 05:24:21;;;;;;;85.70;42.30;;;3.30;99.90;;;;;;4989200;28;20030;-86
2022/03/25 05:26:47;;;;;;;89.60;39.72;;;3.30;99.90;;;;;;4993355;28;20406;-85
2022/03/25 05:29:12;;;;;;;90.10;41.40;;;3.30;99.90;;;;;;4992238;28;20052;-86
2022/03/25 05:31:38;;;;;;;94.05;43.10;;;3.40;99.90;;;;;;4985142;28;20176;-87
2022/03/25 05:34:04;;;;;;;93.28;43.05;;;3.40;99.90;;;;;;4984809;28;20034;-86
2022/03/25 05:36:31;;;;;;;103.25;45.33;;;3.50;99.90;;;;;;4983259;28;20027;-85
2022/03/25 05:38:57;;;;;;;92.45;43.80;;;3.50;99.90;;;;;;4983490;28;20436;-85
2022/03/25 05:41:24;;;;;;;96.82;43.03;;;3.50;99.90;;;;;;4982771;28;20257;-86
2022/03/25 05:43:50;;;;;;;92.40;44.08;;;3.50;99.90;;;;;;4989371;28;20498;-86
2022/03/25 05:46:16;;;;;;;96.35;45.40;;;3.50;99.90;;;;;;4976447;28;20034;-86
2022/03/25 05:48:42;;;;;;;92.30;43.35;;;3.50;99.90;;;;;;4986448;28;20093;-85
2022/03/25 05:51:07;;;;;;;99.72;46.53;;;3.60;99.90;;;;;;4982561;28;20027;-85
2022/03/25 05:53:33;;;;;;;95.20;46.17;;;3.60;99.90;;;;;;4989866;28;20042;-86
2022/03/25 05:55:59;;;;;;;96.82;45.97;;;3.60;99.90;;;;;;4988322;28;20444;-83
2022/03/25 05:58:25;;;;;;;100.03;47.33;;;3.60;99.90;;;;;;4994181;28;20058;-86
2022/03/25 06:00:51;;;;;;;94.30;44.15;;;3.70;99.90;;;;;;4978729;28;20508;-85
2022/03/25 06:03:17;;;;;;;93.60;44.47;;;3.80;99.90;;;;;;4989211;28;20116;-86
2022/03/25 06:05:42;;;;;;;101.57;47.70;;;3.80;99.90;;;;;;4992427;28;20032;-85
2022/03/25 06:08:09;;;;;;;96.53;46.70;;;3.80;99.90;;;;;;4979726;28;20084;-86
2022/03/25 06:10:34;;;;;;;98.82;47.25;;;3.90;99.90;;;;;;4993467;28;20023;-85
2022/03/25 06:13:00;;;;;;;102.97;49.83;;;4.00;99.90;;;;;;4991918;28;20081;-86
2022/03/25 06:15:26;;;;;;;97.55;46.85;;;4.00;99.90;;;;;;4990891;28;20031;-86
2022/03/25 06:17:51;;;;;;;100.50;48.38;;;4.10;99.90;;;;;;4990882;28;20085;-86
2022/03/25 06:20:19;;;;;;;96.30;47.63;;;4.10;99.90;;;;;;4987767;28;20042;-86
2022/03/25 06:22:45;;;;;;;104.00;50.85;;;4.10;99.90;;;;;;4979604;28;20197;-85
2022/03/25 06:25:12;;;;;;;109.43;51.47;;;4.20;99.90;;;;;;4983394;28;20050;-85
2022/03/25 06:27:56;;;;;;;110.72;52.47;;;4.30;99.90;;;;;;4992393;28;20034;-86
2022/03/25 06:30:36;;;;;;;105.32;51.00;;;4.30;99.90;;;;;;4993280;28;20094;-85
2022/03/25 06:33:03;;;;;;;102.93;49.55;;;4.30;99.90;;;;;;4973677;28;20027;-86
2022/03/25 06:35:29;;;;;;;103.35;50.63;;;4.40;99.90;;;;;;4989867;28;20062;-86
2022/03/25 06:37:56;;;;;;;109.68;52.35;;;4.40;99.90;;;;;;4983562;28;20110;-85
2022/03/25 06:40:22;;;;;;;105.13;50.10;;;4.50;99.90;;;;;;4985393;28;20030;-86
2022/03/25 06:42:48;;;;;;;109.35;50.67;;;4.50;99.90;;;;;;4980589;28;20045;-85
2022/03/25 06:45:16;;;;;;;108.65;53.97;;;4.60;99.90;;;;;;4986222;28;20455;-85
2022/03/25 06:47:42;;;;;;;111.28;53.45;;;4.70;99.90;;;;;;4981683;28;20055;-86
2022/03/25 06:50:10;;;;;;;114.10;53.97;;;4.70;99.90;;;;;;4973382;28;22096;-86
2022/03/25 06:52:36;;;;;;;114.78;55.17;;;4.80;99.90;;;;;;4989174;28;20471;-86
2022/03/25 06:55:03;;;;;;;105.75;53.35;;;4.90;99.90;;;;;;4993012;28;20427;-86
2022/03/25 06:57:29;;;;;;;113.65;54.38;;;5.00;99.90;;;;;;4992885;28;20105;-86
2022/03/25 06:59:55;;;;;;;115.38;55.25;;;5.10;99.90;;;;;;4988296;28;20058;-86
2022/03/25 07:02:20;;;;;;;111.35;54.17;;;5.20;99.90;;;;;;4977567;28;20041;-86
2022/03/25 07:04:46;;;;;;;117.00;54.67;;;5.20;99.90;;;;;;5011066;28;20026;-86
2022/03/25 07:07:12;;;;;;;113.93;57.40;;;5.30;99.90;;;;;;4992269;28;20391;-86
2022/03/25 07:09:38;;;;;;;103.50;53.05;;;5.40;99.90;;;;;;4984550;28;20034;-86
2022/03/25 07:12:04;;;;;;;109.80;56.22;;;5.50;99.90;;;;;;4988077;28;20471;-86
2022/03/25 07:14:30;;;;;;;99.03;53.28;;;5.60;99.90;;;;;;4990653;28;20037;-84
2022/03/25 07:16:55;;;;;;;121.03;55.88;;;5.70;99.90;;;;;;4992433;28;20023;-86
2022/03/25 07:19:25;;;;;;;106.22;54.70;;;5.90;99.90;;;;;;4990870;28;20030;-86
2022/03/25 07:21:53;;;;;;;111.03;56.42;;;5.90;99.90;;;;;;4985901;28;20074;-86
2022/03/25 07:24:21;;;;;;;103.03;54.78;;;6.10;99.90;;;;;;4975472;28;20039;-83
2022/03/25 07:26:48;;;;;;;111.18;57.97;;;6.20;99.90;;;;;;4988333;28;20047;-84
2022/03/25 07:29:14;;;;;;;112.60;57.33;;;6.30;99.90;;;;;;4986781;28;20037;-84
2022/03/25 07:31:39;;;;;;;106.65;54.85;;;6.40;99.90;;;;;;4991078;28;20121;-83
2022/03/25 07:34:05;;;;;;;107.72;56.53;;;6.50;99.90;;;;;;4986030;28;20026;-84
2022/03/25 07:36:31;;;;;;;103.10;55.75;;;6.60;99.90;;;;;;4989935;28;20030;-84
2022/03/25 07:38:56;;;;;;;107.28;56.35;;;6.70;99.90;;;;;;4986816;28;20101;-84
2022/03/25 07:41:22;;;;;;;103.15;55.47;;;6.80;99.90;;;;;;4988124;28;20106;-85
2022/03/25 07:43:48;;;;;;;103.88;53.35;;;6.90;99.90;;;;;;4990191;28;20042;-84
2022/03/25 07:46:14;;;;;;;106.15;56.17;;;7.00;99.90;;;;;;4986156;28;20551;-85
2022/03/25 07:48:40;;;;;;;107.20;55.55;;;7.10;99.90;;;;;;4993796;28;20032;-84
2022/03/25 07:51:07;;;;;;;104.28;55.92;;;7.20;99.90;;;;;;4979262;28;20117;-85
2022/03/25 07:53:33;;;;;;;108.45;58.75;;;7.30;99.90;;;;;;4983177;28;20030;-84
2022/03/25 07:55:59;;;;;;;100.60;53.22;;;7.40;99.90;;;;;;4986157;28;20035;-85
2022/03/25 07:58:26;;;;;;;95.85;52.15;;;7.50;99.90;;;;;;4990368;28;20030;-84
2022/03/25 08:00:52;;;;;;;96.32;51.22;;;7.60;99.90;;;;;;4997255;28;20018;-85
2022/03/25 08:03:18;;;;;;;96.10;52.13;;;7.80;99.90;;;;;;4994681;28;20065;-85
2022/03/25 08:05:45;;;;;;;98.15;54.75;;;7.80;99.90;;;;;;5003987;28;20030;-86
2022/03/25 08:08:11;;;;;;;107.40;57.22;;;7.90;99.90;;;;;;4984009;28;20142;-85
2022/03/25 08:10:39;;;;;;;99.40;53.35;;;8.10;99.90;;;;;;4981863;28;20058;-86
2022/03/25 08:13:05;;;;;;;94.50;52.60;;;8.20;99.90;;;;;;4980601;28;20030;-85
2022/03/25 08:15:32;;;;;;;91.82;51.75;;;8.30;99.90;;;;;;4995889;28;20036;-85
2022/03/25 08:18:00;;;;;;;89.28;50.50;;;8.40;99.90;;;;;;4992268;28;20058;-85
2022/03/25 08:20:27;;;;;;;89.80;50.35;;;8.50;99.90;;;;;;4991027;28;20127;-83
2022/03/25 08:22:55;;;;;;;99.85;51.20;;;8.60;99.90;;;;;;4977834;28;20045;-85
2022/03/25 08:28:05;;;;;;;95.00;52.83;;;8.80;99.90;;;;;;4983170;28;20041;-85
2022/03/25 08:30:32;;;;;;;95.40;53.35;;;8.90;99.90;;;;;;4993980;28;20035;-85
2022/03/25 08:32:58;;;;;;;93.07;51.72;;;9.00;99.90;;;;;;4990064;28;20116;-85
2022/03/25 08:35:27;;;;;;;89.53;51.15;;;9.10;99.90;;;;;;4993646;28;20022;-85
2022/03/25 08:37:54;;;;;;;93.10;51.60;;;9.20;99.90;;;;;;4994377;28;20030;-85
2022/03/25 08:40:21;;;;;;;86.68;49.20;;;9.30;99.90;;;;;;4994421;28;20085;-85
2022/03/25 08:42:47;;;;;;;94.78;52.17;;;9.40;99.90;;;;;;4994419;28;20046;-85
2022/03/25 08:45:15;;;;;;;86.65;51.35;;;9.60;99.90;;;;;;4991763;28;20030;-85
2022/03/25 08:47:41;;;;;;;86.13;49.72;;;9.60;99.90;;;;;;4992573;28;20117;-85
2022/03/25 08:50:09;;;;;;;80.13;46.65;;;9.80;99.90;;;;;;4981493;28;20030;-85
2022/03/25 08:52:36;;;;;;;84.32;45.97;;;9.90;99.90;;;;;;4981191;28;20035;-85
2022/03/25 08:55:01;;;;;;;80.15;46.00;;;10.00;99.90;;;;;;4978695;28;20031;-86
2022/03/25 08:57:27;;;;;;;73.60;44.72;;;10.10;99.50;;;;;;4985586;28;20431;-86
2022/03/25 08:59:52;;;;;;;83.05;46.80;;;10.20;99.10;;;;;;4988766;28;20134;-85
2022/03/25 09:02:18;;;;;;;84.25;47.00;;;10.20;98.10;;;;;;4993521;28;20114;-86
2022/03/25 09:04:46;;;;;;;81.38;47.00;;;10.30;98.00;;;;;;4993821;28;20034;-86
2022/03/25 09:07:12;;;;;;;83.55;48.35;;;10.40;98.10;;;;;;4985912;28;20476;-85
2022/03/25 09:09:37;;;;;;;102.00;49.97;;;10.50;97.90;;;;;;4992296;28;20031;-85
2022/03/25 09:12:03;;;;;;;79.50;46.30;;;10.60;97.80;;;;;;4974512;28;20030;-85
2022/03/25 09:14:29;;;;;;;78.03;46.40;;;10.70;97.90;;;;;;4976923;28;20118;-85
2022/03/25 09:16:54;;;;;;;77.75;43.88;;;10.80;97.50;;;;;;4980219;28;20061;-85
2022/03/25 09:19:20;;;;;;;73.50;43.70;;;11.00;97.40;;;;;;4992103;28;20018;-86
2022/03/25 09:21:45;;;;;;;77.78;44.58;;;11.10;96.60;;;;;;4996087;28;20092;-84
2022/03/25 09:24:12;;;;;;;70.38;43.03;;;11.20;95.50;;;;;;4981969;28;20483;-85
2022/03/25 09:26:37;;;;;;;73.78;42.85;;;11.30;95.00;;;;;;4987860;28;20088;-84
2022/03/25 09:29:03;;;;;;;76.35;41.75;;;11.40;94.90;;;;;;4985484;28;20882;-85
2022/03/25 09:31:29;;;;;;;70.60;44.15;;;11.50;94.00;;;;;;4987412;28;20052;-85
2022/03/25 09:35:08;;;;;;;71.28;43.17;;;11.50;93.10;;;;;;4979351;28;20166;-86
2022/03/25 09:36:40;;;;;;;69.40;39.58;;;11.60;93.30;;;;;;4980396;28;20030;-85
2022/03/25 09:39:05;;;;;;;69.07;41.75;;;11.80;93.20;;;;;;4989088;28;20478;-84
2022/03/25 09:41:31;;;;;;;66.03;39.50;;;11.80;92.40;;;;;;4974644;28;20038;-84
2022/03/25 09:43:57;;;;;;;67.95;38.72;;;11.90;91.50;;;;;;4988819;28;20050;-85
2022/03/25 09:46:24;;;;;;;69.90;39.58;;;12.00;91.00;;;;;;4987904;28;20475;-85
2022/03/25 09:48:50;;;;;;;56.42;35.88;;;12.10;90.80;;;;;;4988575;28;20138;-85
2022/03/25 09:51:16;;;;;;;64.25;39.65;;;12.30;90.90;;;;;;4985842;28;20109;-86
2022/03/25 09:53:41;;;;;;;67.50;39.20;;;12.40;90.10;;;;;;4989303;28;20031;-85
2022/03/25 09:56:07;;;;;;;63.65;40.03;;;12.50;90.10;;;;;;4981914;28;20038;-85
2022/03/25 09:58:33;;;;;;;60.03;37.58;;;12.50;87.80;;;;;;4993087;28;20081;-84
2022/03/25 10:00:59;;;;;;;66.00;38.13;;;12.60;87.40;;;;;;4993064;28;20033;-86
2022/03/25 10:03:36;;;;;;;64.18;38.92;;;12.70;87.40;;;;;;4987614;28;20057;-86
2022/03/25 10:06:04;;;;;;;65.05;37.10;;;12.80;86.70;;;;;;4995833;28;20121;-83
2022/03/25 10:08:30;;;;;;;60.90;35.90;;;12.80;85.70;;;;;;4994599;28;20479;-84
2022/03/25 10:10:56;;;;;;;57.80;35.83;;;12.90;85.10;;;;;;4977978;28;20030;-84
2022/03/25 10:13:22;;;;;;;68.28;38.17;;;13.00;84.50;;;;;;5003125;28;20036;-84
2022/03/25 10:15:47;;;;;;;63.05;37.55;;;13.10;83.20;;;;;;4992452;28;20033;-85
2022/03/25 10:18:13;;;;;;;64.18;35.83;;;13.10;83.00;;;;;;4983125;28;20031;-84
2022/03/25 10:20:41;;;;;;;62.90;37.17;;;13.20;82.30;;;;;;4979472;28;20100;-85
2022/03/25 10:23:16;;;;;;;59.42;35.60;;;13.30;81.30;;;;;;4991853;28;20486;-84
2022/03/25 10:25:45;;;;;;;61.90;35.38;;;13.30;80.40;;;;;;4983223;28;20030;-85
2022/03/25 10:28:30;;;;;;;54.67;34.50;;;13.40;79.20;;;;;;4982507;28;20168;-85
2022/03/25 10:30:59;;;;;;;55.55;35.53;;;13.50;77.70;;;;;;5001171;28;20500;-85
2022/03/25 10:33:31;;;;;;;63.33;35.78;;;13.50;77.90;;;;;;4993986;28;20092;-85
2022/03/25 10:36:07;;;;;;;59.15;35.15;;;13.60;77.70;;;;;;4985804;28;20048;-84
2022/03/25 10:38:42;;;;;;;58.60;34.85;;;13.80;77.40;;;;;;4991691;28;20538;-84
2022/03/25 10:41:09;;;;;;;61.70;38.05;;;13.80;77.30;;;;;;4992017;28;20030;-85
2022/03/25 10:43:35;;;;;;;56.70;34.03;;;13.90;76.80;;;;;;4980184;28;20454;-84
2022/03/25 10:46:00;;;;;;;57.30;35.03;;;14.00;75.70;;;;;;4983391;28;20121;-85
2022/03/25 10:48:26;;;;;;;57.42;34.35;;;14.00;74.30;;;;;;4983110;28;20747;-85
2022/03/25 10:51:04;;;;;;;55.45;33.85;;;14.00;74.80;;;;;;4977516;28;20035;-85
2022/03/25 10:53:32;;;;;;;51.92;31.50;;;14.10;74.20;;;;;;4994125;28;20110;-85
2022/03/25 10:56:03;;;;;;;59.63;35.15;;;14.20;74.20;;;;;;4981730;28;20029;-84
2022/03/25 10:58:29;;;;;;;56.90;33.35;;;14.20;71.90;;;;;;4988072;28;20482;-84
2022/03/25 11:00:55;;;;;;;53.25;31.42;;;14.20;71.70;;;;;;4985880;28;20030;-84
2022/03/25 11:03:21;;;;;;;58.25;32.38;;;14.20;72.10;;;;;;4988286;28;20042;-85
2022/03/25 11:05:47;;;;;;;56.65;32.15;;;14.40;71.50;;;;;;4988537;28;20495;-85
2022/03/25 11:08:12;;;;;;;61.00;32.38;;;14.50;71.50;;;;;;4976297;28;20042;-84
2022/03/25 11:10:38;;;;;;;53.92;32.40;;;14.70;70.90;;;;;;4985942;28;20034;-85
2022/03/25 11:13:05;;;;;;;55.63;32.22;;;14.70;70.70;;;;;;4983046;28;20137;-84
2022/03/25 11:15:31;;;;;;;54.25;32.97;;;14.80;69.90;;;;;;4992961;28;20372;-85
2022/03/25 11:17:58;;;;;;;53.58;31.55;;;14.90;69.80;;;;;;4996571;28;20033;-85
2022/03/25 11:20:26;;;;;;;51.55;31.05;;;14.90;69.10;;;;;;4991624;28;20085;-85
2022/03/25 11:23:08;;;;;;;58.80;33.72;;;15.00;68.90;;;;;;4991986;28;20494;-84
2022/03/25 11:25:56;;;;;;;56.80;32.88;;;15.00;67.90;;;;;;4989656;28;20042;-85
2022/03/25 11:28:30;;;;;;;58.25;33.72;;;15.10;67.70;;;;;;4981212;28;20023;-85
2022/03/25 11:30:59;;;;;;;49.97;31.17;;;15.20;67.70;;;;;;4983472;28;20062;-85
2022/03/25 11:33:24;;;;;;;55.35;33.58;;;15.30;67.40;;;;;;4987305;28;20019;-85
2022/03/25 11:36:14;;;;;;;56.13;33.60;;;15.30;66.30;;;;;;4991052;28;20085;-85
2022/03/25 11:38:41;;;;;;;59.50;34.75;;;15.40;66.80;;;;;;4992415;28;20022;-85
2022/03/25 11:41:39;;;;;;;58.30;34.13;;;15.40;66.20;;;;;;4986205;28;20114;-87
2022/03/25 11:44:14;;;;;;;63.60;37.00;;;15.50;66.20;;;;;;4981765;28;20070;-85
2022/03/25 11:46:58;;;;;;;59.33;33.22;;;15.50;65.90;;;;;;4987942;28;20026;-85
2022/03/25 11:49:27;;;;;;;49.20;29.02;;;15.50;66.50;;;;;;5002265;28;20463;-85
2022/03/25 11:51:53;;;;;;;44.78;25.70;;;15.60;64.90;;;;;;4976738;28;20368;-85
2022/03/25 11:54:40;;;;;;;52.97;28.40;;;15.60;63.90;;;;;;4998445;28;20033;-85
2022/03/25 11:57:20;;;;;;;52.13;28.70;;;15.70;64.00;;;;;;4987786;28;20109;-83
2022/03/25 11:59:54;;;;;;;53.53;29.83;;;15.70;64.10;;;;;;4978051;28;20026;-88
2022/03/25 12:02:36;;;;;;;43.40;26.30;;;15.80;64.20;;;;;;4986024;28;20038;-84
2022/03/25 12:05:25;;;;;;;43.10;24.00;;;16.00;64.20;;;;;;4991534;28;20031;-85
2022/03/25 12:08:22;;;;;;;49.50;27.13;;;16.10;64.00;;;;;;4985318;28;20026;-85
2022/03/25 12:10:49;;;;;;;43.88;24.60;;;16.10;63.50;;;;;;4984692;28;20018;-85
2022/03/25 12:13:16;;;;;;;55.70;29.98;;;16.20;63.40;;;;;;4985009;28;20400;-85
2022/03/25 12:15:44;;;;;;;54.88;30.55;;;16.30;62.50;;;;;;4990298;28;20029;-84
2022/03/25 12:18:38;;;;;;;56.80;32.78;;;16.30;62.90;;;;;;4990374;28;20026;-84
2022/03/25 12:21:03;;;;;;;51.53;30.80;;;16.30;62.90;;;;;;4984059;28;20053;-85
2022/03/25 12:23:29;;;;;;;53.75;32.20;;;16.20;63.10;;;;;;4986588;28;20137;-85
2022/03/25 12:25:55;;;;;;;56.33;33.17;;;16.30;63.80;;;;;;4986798;28;20058;-85
2022/03/25 12:28:25;;;;;;;58.22;33.03;;;16.40;65.00;;;;;;4992100;28;20027;-84
2022/03/25 12:30:53;;;;;;;59.70;35.35;;;16.60;64.90;;;;;;4983974;28;20054;-85
2022/03/25 12:33:19;;;;;;;61.45;32.83;;;16.80;65.00;;;;;;4989867;28;20089;-84
2022/03/25 12:35:45;;;;;;;55.33;32.08;;;16.90;64.50;;;;;;4987633;28;20423;-85